sensor_id;sensor_type;location;lat;lon;timestamp;P1;durP1;ratioP1;P2;durP2;ratioP2
17592;SDS011;8915;51.760;14.300;2023-01-29T00:00:19;4.57;;;2.20;;
17592;SDS011;8915;51.760;14.300;2023-01-29T00:02:46;5.07;;;2.77;;
17592;SDS011;8915;51.760;14.300;2023-01-29T00:05:14;4.33;;;3.23;;
17592;SDS011;8915;51.760;14.300;2023-01-29T00:07:40;4.93;;;3.17;;
17592;SDS011;8915;51.760;14.300;2023-01-29T00:10:09;4.57;;;2.80;;
17592;SDS011;8915;51.760;14.300;2023-01-29T00:12:36;5.10;;;3.17;;
17592;SDS011;8915;51.760;14.300;2023-01-29T00:15:03;4.17;;;2.83;;
17592;SDS011;8915;51.760;14.300;2023-01-29T00:17:30;8.53;;;3.43;;
17592;SDS011;8915;51.760;14.300;2023-01-29T00:19:56;8.70;;;3.77;;
17592;SDS011;8915;51.760;14.300;2023-01-29T00:22:23;5.97;;;2.93;;
17592;SDS011;8915;51.760;14.300;2023-01-29T00:24:50;3.87;;;2.93;;
17592;SDS011;8915;51.760;14.300;2023-01-29T00:27:17;6.53;;;3.43;;
17592;SDS011;8915;51.760;14.300;2023-01-29T00:29:43;5.83;;;2.93;;
17592;SDS011;8915;51.760;14.300;2023-01-29T00:32:30;6.93;;;3.37;;
17592;SDS011;8915;51.760;14.300;2023-01-29T00:34:57;6.37;;;3.33;;
17592;SDS011;8915;51.760;14.300;2023-01-29T00:37:23;3.40;;;2.67;;
17592;SDS011;8915;51.760;14.300;2023-01-29T00:39:50;5.77;;;2.67;;
17592;SDS011;8915;51.760;14.300;2023-01-29T00:42:17;5.93;;;3.10;;
17592;SDS011;8915;51.760;14.300;2023-01-29T00:45:02;6.43;;;2.97;;
17592;SDS011;8915;51.760;14.300;2023-01-29T00:47:29;4.63;;;3.23;;
17592;SDS011;8915;51.760;14.300;2023-01-29T00:49:57;4.93;;;3.30;;
17592;SDS011;8915;51.760;14.300;2023-01-29T00:52:23;4.73;;;3.37;;
17592;SDS011;8915;51.760;14.300;2023-01-29T00:54:50;4.23;;;3.40;;
17592;SDS011;8915;51.760;14.300;2023-01-29T00:57:19;6.30;;;3.37;;
17592;SDS011;8915;51.760;14.300;2023-01-29T00:59:46;5.90;;;3.20;;
17592;SDS011;8915;51.760;14.300;2023-01-29T01:02:12;4.80;;;2.87;;
17592;SDS011;8915;51.760;14.300;2023-01-29T01:05:13;5.10;;;3.10;;
17592;SDS011;8915;51.760;14.300;2023-01-29T01:07:43;3.60;;;2.80;;
17592;SDS011;8915;51.760;14.300;2023-01-29T01:10:11;8.40;;;3.03;;
17592;SDS011;8915;51.760;14.300;2023-01-29T01:12:51;5.13;;;2.70;;
17592;SDS011;8915;51.760;14.300;2023-01-29T01:15:20;6.47;;;3.33;;
17592;SDS011;8915;51.760;14.300;2023-01-29T01:17:47;7.00;;;3.37;;
17592;SDS011;8915;51.760;14.300;2023-01-29T01:20:17;3.47;;;2.70;;
17592;SDS011;8915;51.760;14.300;2023-01-29T01:22:44;4.53;;;3.40;;
17592;SDS011;8915;51.760;14.300;2023-01-29T01:25:10;4.67;;;3.33;;
17592;SDS011;8915;51.760;14.300;2023-01-29T01:27:37;5.67;;;3.10;;
17592;SDS011;8915;51.760;14.300;2023-01-29T01:30:08;3.73;;;3.30;;
17592;SDS011;8915;51.760;14.300;2023-01-29T01:32:36;5.20;;;3.40;;
17592;SDS011;8915;51.760;14.300;2023-01-29T01:35:03;4.90;;;3.57;;
17592;SDS011;8915;51.760;14.300;2023-01-29T01:37:30;5.30;;;3.33;;
17592;SDS011;8915;51.760;14.300;2023-01-29T01:39:57;3.87;;;3.20;;
17592;SDS011;8915;51.760;14.300;2023-01-29T01:42:26;3.63;;;3.03;;
17592;SDS011;8915;51.760;14.300;2023-01-29T01:44:56;3.37;;;2.93;;
17592;SDS011;8915;51.760;14.300;2023-01-29T01:47:31;3.27;;;2.93;;
17592;SDS011;8915;51.760;14.300;2023-01-29T01:50:05;4.73;;;3.23;;
17592;SDS011;8915;51.760;14.300;2023-01-29T01:52:34;4.30;;;2.90;;
17592;SDS011;8915;51.760;14.300;2023-01-29T01:55:04;4.70;;;3.17;;
17592;SDS011;8915;51.760;14.300;2023-01-29T01:57:32;3.50;;;3.13;;
17592;SDS011;8915;51.760;14.300;2023-01-29T02:00:03;5.97;;;3.43;;
17592;SDS011;8915;51.760;14.300;2023-01-29T02:02:43;4.80;;;3.33;;
17592;SDS011;8915;51.760;14.300;2023-01-29T02:05:29;4.53;;;3.23;;
17592;SDS011;8915;51.760;14.300;2023-01-29T02:08:15;6.57;;;3.83;;
17592;SDS011;8915;51.760;14.300;2023-01-29T02:11:06;4.43;;;3.50;;
17592;SDS011;8915;51.760;14.300;2023-01-29T02:13:34;4.17;;;3.20;;
17592;SDS011;8915;51.760;14.300;2023-01-29T02:16:03;5.53;;;3.70;;
17592;SDS011;8915;51.760;14.300;2023-01-29T02:18:33;7.73;;;3.40;;
17592;SDS011;8915;51.760;14.300;2023-01-29T02:21:06;5.03;;;3.70;;
17592;SDS011;8915;51.760;14.300;2023-01-29T02:23:58;10.07;;;4.23;;
17592;SDS011;8915;51.760;14.300;2023-01-29T02:26:38;3.83;;;3.17;;
17592;SDS011;8915;51.760;14.300;2023-01-29T02:29:14;4.20;;;3.57;;
17592;SDS011;8915;51.760;14.300;2023-01-29T02:31:50;6.43;;;3.73;;
17592;SDS011;8915;51.760;14.300;2023-01-29T02:34:24;5.33;;;3.80;;
17592;SDS011;8915;51.760;14.300;2023-01-29T02:37:17;5.07;;;4.13;;
17592;SDS011;8915;51.760;14.300;2023-01-29T02:39:52;5.03;;;3.93;;
17592;SDS011;8915;51.760;14.300;2023-01-29T02:42:27;6.43;;;4.00;;
17592;SDS011;8915;51.760;14.300;2023-01-29T02:45:03;7.50;;;4.60;;
17592;SDS011;8915;51.760;14.300;2023-01-29T02:47:38;6.47;;;3.93;;
17592;SDS011;8915;51.760;14.300;2023-01-29T02:50:11;9.07;;;4.67;;
17592;SDS011;8915;51.760;14.300;2023-01-29T02:52:43;5.97;;;4.13;;
17592;SDS011;8915;51.760;14.300;2023-01-29T02:55:15;7.43;;;4.33;;
17592;SDS011;8915;51.760;14.300;2023-01-29T02:57:46;5.57;;;4.07;;
17592;SDS011;8915;51.760;14.300;2023-01-29T03:00:23;5.97;;;4.43;;
17592;SDS011;8915;51.760;14.300;2023-01-29T03:02:54;7.17;;;4.50;;
17592;SDS011;8915;51.760;14.300;2023-01-29T03:05:26;7.17;;;4.90;;
17592;SDS011;8915;51.760;14.300;2023-01-29T03:07:58;9.90;;;5.00;;
17592;SDS011;8915;51.760;14.300;2023-01-29T03:10:34;7.00;;;5.07;;
17592;SDS011;8915;51.760;14.300;2023-01-29T03:13:05;6.50;;;4.53;;
17592;SDS011;8915;51.760;14.300;2023-01-29T03:15:39;5.10;;;3.90;;
17592;SDS011;8915;51.760;14.300;2023-01-29T03:18:22;7.27;;;4.70;;
17592;SDS011;8915;51.760;14.300;2023-01-29T03:20:57;6.47;;;4.93;;
17592;SDS011;8915;51.760;14.300;2023-01-29T03:23:29;5.33;;;4.37;;
17592;SDS011;8915;51.760;14.300;2023-01-29T03:26:19;9.83;;;4.70;;
17592;SDS011;8915;51.760;14.300;2023-01-29T03:29:06;6.27;;;4.47;;
17592;SDS011;8915;51.760;14.300;2023-01-29T03:31:54;5.47;;;4.10;;
17592;SDS011;8915;51.760;14.300;2023-01-29T03:34:32;6.77;;;4.17;;
17592;SDS011;8915;51.760;14.300;2023-01-29T03:37:09;6.93;;;4.93;;
17592;SDS011;8915;51.760;14.300;2023-01-29T03:39:43;6.07;;;4.20;;
17592;SDS011;8915;51.760;14.300;2023-01-29T03:42:11;8.63;;;4.80;;
17592;SDS011;8915;51.760;14.300;2023-01-29T03:44:44;7.37;;;3.90;;
17592;SDS011;8915;51.760;14.300;2023-01-29T03:47:30;5.87;;;4.43;;
17592;SDS011;8915;51.760;14.300;2023-01-29T03:50:08;5.93;;;4.30;;
17592;SDS011;8915;51.760;14.300;2023-01-29T03:52:43;5.70;;;4.17;;
17592;SDS011;8915;51.760;14.300;2023-01-29T03:55:14;6.77;;;4.10;;
17592;SDS011;8915;51.760;14.300;2023-01-29T03:57:48;5.37;;;4.03;;
17592;SDS011;8915;51.760;14.300;2023-01-29T04:00:21;5.83;;;4.13;;
17592;SDS011;8915;51.760;14.300;2023-01-29T04:03:04;6.70;;;3.90;;
17592;SDS011;8915;51.760;14.300;2023-01-29T04:05:37;7.83;;;4.00;;
17592;SDS011;8915;51.760;14.300;2023-01-29T04:08:18;5.87;;;4.30;;
17592;SDS011;8915;51.760;14.300;2023-01-29T04:10:51;5.47;;;3.40;;
17592;SDS011;8915;51.760;14.300;2023-01-29T04:13:21;5.53;;;3.97;;
17592;SDS011;8915;51.760;14.300;2023-01-29T04:15:52;4.57;;;3.60;;
17592;SDS011;8915;51.760;14.300;2023-01-29T04:18:44;5.17;;;3.50;;
17592;SDS011;8915;51.760;14.300;2023-01-29T04:21:11;4.27;;;3.70;;
17592;SDS011;8915;51.760;14.300;2023-01-29T04:23:39;4.67;;;3.60;;
17592;SDS011;8915;51.760;14.300;2023-01-29T04:26:11;6.60;;;3.60;;
17592;SDS011;8915;51.760;14.300;2023-01-29T04:28:53;6.93;;;3.73;;
17592;SDS011;8915;51.760;14.300;2023-01-29T04:31:29;4.87;;;3.80;;
17592;SDS011;8915;51.760;14.300;2023-01-29T04:34:04;5.00;;;3.67;;
17592;SDS011;8915;51.760;14.300;2023-01-29T04:36:45;4.57;;;3.67;;
17592;SDS011;8915;51.760;14.300;2023-01-29T04:39:21;4.97;;;3.40;;
17592;SDS011;8915;51.760;14.300;2023-01-29T04:41:53;3.77;;;3.10;;
17592;SDS011;8915;51.760;14.300;2023-01-29T04:44:26;4.63;;;3.33;;
17592;SDS011;8915;51.760;14.300;2023-01-29T04:47:02;5.07;;;3.57;;
17592;SDS011;8915;51.760;14.300;2023-01-29T04:49:39;4.53;;;3.57;;
17592;SDS011;8915;51.760;14.300;2023-01-29T04:52:11;7.63;;;3.90;;
17592;SDS011;8915;51.760;14.300;2023-01-29T04:54:50;4.33;;;3.50;;
17592;SDS011;8915;51.760;14.300;2023-01-29T04:57:28;4.10;;;3.47;;
17592;SDS011;8915;51.760;14.300;2023-01-29T04:59:59;4.40;;;3.60;;
17592;SDS011;8915;51.760;14.300;2023-01-29T05:02:39;7.00;;;3.60;;
17592;SDS011;8915;51.760;14.300;2023-01-29T05:05:08;4.63;;;3.70;;
17592;SDS011;8915;51.760;14.300;2023-01-29T05:07:37;4.03;;;3.63;;
17592;SDS011;8915;51.760;14.300;2023-01-29T05:10:04;8.63;;;4.10;;
17592;SDS011;8915;51.760;14.300;2023-01-29T05:12:35;5.87;;;4.10;;
17592;SDS011;8915;51.760;14.300;2023-01-29T05:15:03;5.47;;;3.80;;
17592;SDS011;8915;51.760;14.300;2023-01-29T05:17:34;5.33;;;3.93;;
17592;SDS011;8915;51.760;14.300;2023-01-29T05:20:00;5.67;;;3.87;;
17592;SDS011;8915;51.760;14.300;2023-01-29T05:22:28;4.50;;;3.50;;
17592;SDS011;8915;51.760;14.300;2023-01-29T05:24:56;5.40;;;3.80;;
17592;SDS011;8915;51.760;14.300;2023-01-29T05:27:23;5.60;;;4.17;;
17592;SDS011;8915;51.760;14.300;2023-01-29T05:30:12;5.40;;;3.70;;
17592;SDS011;8915;51.760;14.300;2023-01-29T05:32:39;5.40;;;4.00;;
17592;SDS011;8915;51.760;14.300;2023-01-29T05:35:05;6.17;;;4.10;;
17592;SDS011;8915;51.760;14.300;2023-01-29T05:37:34;6.67;;;4.50;;
17592;SDS011;8915;51.760;14.300;2023-01-29T05:40:00;5.83;;;3.77;;
17592;SDS011;8915;51.760;14.300;2023-01-29T05:42:27;6.00;;;3.90;;
17592;SDS011;8915;51.760;14.300;2023-01-29T05:44:53;5.50;;;4.23;;
17592;SDS011;8915;51.760;14.300;2023-01-29T05:47:20;5.80;;;4.40;;
17592;SDS011;8915;51.760;14.300;2023-01-29T05:49:47;5.83;;;3.97;;
17592;SDS011;8915;51.760;14.300;2023-01-29T05:52:13;6.07;;;4.13;;
17592;SDS011;8915;51.760;14.300;2023-01-29T05:54:41;7.10;;;4.30;;
17592;SDS011;8915;51.760;14.300;2023-01-29T05:57:07;7.87;;;4.50;;
17592;SDS011;8915;51.760;14.300;2023-01-29T05:59:34;5.93;;;3.97;;
17592;SDS011;8915;51.760;14.300;2023-01-29T06:02:00;5.47;;;4.40;;
17592;SDS011;8915;51.760;14.300;2023-01-29T06:04:26;4.90;;;3.60;;
17592;SDS011;8915;51.760;14.300;2023-01-29T06:06:53;8.17;;;4.97;;
17592;SDS011;8915;51.760;14.300;2023-01-29T06:09:29;6.10;;;4.20;;
17592;SDS011;8915;51.760;14.300;2023-01-29T06:15:34;7.07;;;4.47;;
17592;SDS011;8915;51.760;14.300;2023-01-29T06:25:32;7.80;;;5.13;;
17592;SDS011;8915;51.760;14.300;2023-01-29T06:28:33;7.03;;;4.77;;
17592;SDS011;8915;51.760;14.300;2023-01-29T06:31:39;8.33;;;4.93;;
17592;SDS011;8915;51.760;14.300;2023-01-29T06:34:15;7.83;;;5.37;;
17592;SDS011;8915;51.760;14.300;2023-01-29T06:37:24;8.27;;;5.20;;
17592;SDS011;8915;51.760;14.300;2023-01-29T06:40:48;9.10;;;5.23;;
17592;SDS011;8915;51.760;14.300;2023-01-29T06:43:16;8.83;;;4.63;;
17592;SDS011;8915;51.760;14.300;2023-01-29T06:45:46;9.97;;;5.60;;
17592;SDS011;8915;51.760;14.300;2023-01-29T06:48:14;9.50;;;5.13;;
17592;SDS011;8915;51.760;14.300;2023-01-29T06:50:40;9.27;;;5.70;;
17592;SDS011;8915;51.760;14.300;2023-01-29T06:53:07;9.60;;;5.60;;
17592;SDS011;8915;51.760;14.300;2023-01-29T06:55:33;8.80;;;5.83;;
17592;SDS011;8915;51.760;14.300;2023-01-29T06:58:04;8.73;;;5.70;;
17592;SDS011;8915;51.760;14.300;2023-01-29T07:00:32;8.87;;;5.50;;
17592;SDS011;8915;51.760;14.300;2023-01-29T07:02:59;8.87;;;5.93;;
17592;SDS011;8915;51.760;14.300;2023-01-29T07:05:25;7.93;;;5.30;;
17592;SDS011;8915;51.760;14.300;2023-01-29T07:07:52;8.00;;;5.73;;
17592;SDS011;8915;51.760;14.300;2023-01-29T07:10:18;7.93;;;5.77;;
17592;SDS011;8915;51.760;14.300;2023-01-29T07:12:45;11.87;;;6.50;;
17592;SDS011;8915;51.760;14.300;2023-01-29T07:15:13;10.37;;;6.53;;
17592;SDS011;8915;51.760;14.300;2023-01-29T07:17:43;11.00;;;6.07;;
17592;SDS011;8915;51.760;14.300;2023-01-29T07:20:10;10.00;;;6.17;;
17592;SDS011;8915;51.760;14.300;2023-01-29T07:22:37;9.23;;;6.33;;
17592;SDS011;8915;51.760;14.300;2023-01-29T07:25:04;10.13;;;6.13;;
17592;SDS011;8915;51.760;14.300;2023-01-29T07:27:31;10.10;;;6.30;;
17592;SDS011;8915;51.760;14.300;2023-01-29T07:29:58;17.10;;;6.60;;
17592;SDS011;8915;51.760;14.300;2023-01-29T07:32:27;10.13;;;6.40;;
17592;SDS011;8915;51.760;14.300;2023-01-29T07:34:53;9.80;;;6.50;;
17592;SDS011;8915;51.760;14.300;2023-01-29T07:37:20;9.90;;;6.53;;
17592;SDS011;8915;51.760;14.300;2023-01-29T07:39:46;8.13;;;5.60;;
17592;SDS011;8915;51.760;14.300;2023-01-29T07:42:13;9.53;;;6.03;;
17592;SDS011;8915;51.760;14.300;2023-01-29T07:44:39;9.47;;;6.40;;
17592;SDS011;8915;51.760;14.300;2023-01-29T07:47:06;10.47;;;6.17;;
17592;SDS011;8915;51.760;14.300;2023-01-29T07:49:34;9.63;;;6.50;;
17592;SDS011;8915;51.760;14.300;2023-01-29T07:52:01;13.63;;;6.60;;
17592;SDS011;8915;51.760;14.300;2023-01-29T07:54:27;13.17;;;6.80;;
17592;SDS011;8915;51.760;14.300;2023-01-29T07:56:54;10.73;;;6.77;;
17592;SDS011;8915;51.760;14.300;2023-01-29T07:59:20;10.87;;;6.20;;
17592;SDS011;8915;51.760;14.300;2023-01-29T08:01:47;11.13;;;5.77;;
17592;SDS011;8915;51.760;14.300;2023-01-29T08:04:13;9.77;;;6.17;;
17592;SDS011;8915;51.760;14.300;2023-01-29T08:06:41;14.10;;;6.37;;
17592;SDS011;8915;51.760;14.300;2023-01-29T08:09:08;11.50;;;5.73;;
17592;SDS011;8915;51.760;14.300;2023-01-29T08:11:36;11.80;;;6.73;;
17592;SDS011;8915;51.760;14.300;2023-01-29T08:14:02;10.00;;;5.90;;
17592;SDS011;8915;51.760;14.300;2023-01-29T08:16:28;11.67;;;6.40;;
17592;SDS011;8915;51.760;14.300;2023-01-29T08:18:55;10.10;;;6.43;;
17592;SDS011;8915;51.760;14.300;2023-01-29T08:21:21;11.13;;;6.90;;
17592;SDS011;8915;51.760;14.300;2023-01-29T08:23:49;12.10;;;6.40;;
17592;SDS011;8915;51.760;14.300;2023-01-29T08:26:16;12.13;;;6.40;;
17592;SDS011;8915;51.760;14.300;2023-01-29T08:28:42;11.50;;;5.70;;
17592;SDS011;8915;51.760;14.300;2023-01-29T08:31:11;10.27;;;6.63;;
17592;SDS011;8915;51.760;14.300;2023-01-29T08:33:39;11.37;;;6.53;;
17592;SDS011;8915;51.760;14.300;2023-01-29T08:36:06;12.00;;;6.30;;
17592;SDS011;8915;51.760;14.300;2023-01-29T08:38:33;14.33;;;7.17;;
17592;SDS011;8915;51.760;14.300;2023-01-29T08:41:01;9.70;;;5.97;;
17592;SDS011;8915;51.760;14.300;2023-01-29T08:43:28;11.20;;;6.67;;
17592;SDS011;8915;51.760;14.300;2023-01-29T08:45:55;12.17;;;6.90;;
17592;SDS011;8915;51.760;14.300;2023-01-29T08:48:21;11.57;;;7.47;;
17592;SDS011;8915;51.760;14.300;2023-01-29T08:50:48;13.50;;;7.33;;
17592;SDS011;8915;51.760;14.300;2023-01-29T08:53:14;12.20;;;6.63;;
17592;SDS011;8915;51.760;14.300;2023-01-29T08:55:40;10.03;;;6.50;;
17592;SDS011;8915;51.760;14.300;2023-01-29T08:58:09;12.17;;;7.27;;
17592;SDS011;8915;51.760;14.300;2023-01-29T09:00:36;12.23;;;7.67;;
17592;SDS011;8915;51.760;14.300;2023-01-29T09:03:03;10.90;;;6.50;;
17592;SDS011;8915;51.760;14.300;2023-01-29T09:05:31;11.10;;;7.20;;
17592;SDS011;8915;51.760;14.300;2023-01-29T09:07:59;11.13;;;5.97;;
17592;SDS011;8915;51.760;14.300;2023-01-29T09:10:25;12.37;;;7.30;;
17592;SDS011;8915;51.760;14.300;2023-01-29T09:12:52;10.67;;;6.30;;
17592;SDS011;8915;51.760;14.300;2023-01-29T09:15:20;10.27;;;5.97;;
17592;SDS011;8915;51.760;14.300;2023-01-29T09:17:47;13.37;;;7.27;;
17592;SDS011;8915;51.760;14.300;2023-01-29T09:20:14;10.43;;;6.73;;
17592;SDS011;8915;51.760;14.300;2023-01-29T09:22:42;13.43;;;7.43;;
17592;SDS011;8915;51.760;14.300;2023-01-29T09:25:08;11.07;;;6.53;;
17592;SDS011;8915;51.760;14.300;2023-01-29T09:27:35;10.33;;;6.63;;
17592;SDS011;8915;51.760;14.300;2023-01-29T09:30:02;13.47;;;6.60;;
17592;SDS011;8915;51.760;14.300;2023-01-29T09:32:30;12.37;;;6.57;;
17592;SDS011;8915;51.760;14.300;2023-01-29T09:34:57;13.93;;;6.93;;
17592;SDS011;8915;51.760;14.300;2023-01-29T09:37:24;12.97;;;6.73;;
17592;SDS011;8915;51.760;14.300;2023-01-29T09:39:50;12.47;;;6.83;;
17592;SDS011;8915;51.760;14.300;2023-01-29T09:42:17;9.27;;;6.37;;
17592;SDS011;8915;51.760;14.300;2023-01-29T09:44:51;11.60;;;6.87;;
17592;SDS011;8915;51.760;14.300;2023-01-29T09:47:23;12.97;;;6.37;;
17592;SDS011;8915;51.760;14.300;2023-01-29T09:49:54;11.97;;;7.57;;
17592;SDS011;8915;51.760;14.300;2023-01-29T09:52:29;13.10;;;7.33;;
17592;SDS011;8915;51.760;14.300;2023-01-29T09:55:00;11.37;;;7.17;;
17592;SDS011;8915;51.760;14.300;2023-01-29T09:57:33;12.53;;;7.63;;
17592;SDS011;8915;51.760;14.300;2023-01-29T10:00:08;14.33;;;7.80;;
17592;SDS011;8915;51.760;14.300;2023-01-29T10:02:43;12.40;;;7.43;;
17592;SDS011;8915;51.760;14.300;2023-01-29T10:05:30;15.03;;;7.00;;
17592;SDS011;8915;51.760;14.300;2023-01-29T10:08:29;13.87;;;7.63;;
17592;SDS011;8915;51.760;14.300;2023-01-29T10:11:07;10.03;;;7.03;;
17592;SDS011;8915;51.760;14.300;2023-01-29T10:13:43;11.17;;;7.10;;
17592;SDS011;8915;51.760;14.300;2023-01-29T10:16:20;10.03;;;6.77;;
17592;SDS011;8915;51.760;14.300;2023-01-29T10:19:03;11.60;;;7.40;;
17592;SDS011;8915;51.760;14.300;2023-01-29T10:21:46;34.03;;;15.87;;
17592;SDS011;8915;51.760;14.300;2023-01-29T10:24:25;15.13;;;9.20;;
17592;SDS011;8915;51.760;14.300;2023-01-29T10:27:01;15.27;;;7.90;;
17592;SDS011;8915;51.760;14.300;2023-01-29T10:29:36;13.23;;;7.70;;
17592;SDS011;8915;51.760;14.300;2023-01-29T10:32:06;11.90;;;7.47;;
17592;SDS011;8915;51.760;14.300;2023-01-29T10:34:37;13.80;;;8.10;;
17592;SDS011;8915;51.760;14.300;2023-01-29T10:37:13;13.77;;;7.07;;
17592;SDS011;8915;51.760;14.300;2023-01-29T10:39:42;10.43;;;7.27;;
17592;SDS011;8915;51.760;14.300;2023-01-29T10:42:13;13.03;;;7.80;;
17592;SDS011;8915;51.760;14.300;2023-01-29T10:47:45;13.37;;;7.80;;
17592;SDS011;8915;51.760;14.300;2023-01-29T10:50:33;11.43;;;6.67;;
17592;SDS011;8915;51.760;14.300;2023-01-29T10:53:15;13.93;;;6.70;;
17592;SDS011;8915;51.760;14.300;2023-01-29T10:55:55;12.13;;;7.30;;
17592;SDS011;8915;51.760;14.300;2023-01-29T10:58:30;15.40;;;7.47;;
17592;SDS011;8915;51.760;14.300;2023-01-29T11:01:03;13.50;;;6.47;;
17592;SDS011;8915;51.760;14.300;2023-01-29T11:03:30;10.80;;;7.00;;
17592;SDS011;8915;51.760;14.300;2023-01-29T11:06:01;10.60;;;6.77;;
17592;SDS011;8915;51.760;14.300;2023-01-29T11:08:39;10.23;;;6.83;;
17592;SDS011;8915;51.760;14.300;2023-01-29T11:11:11;12.20;;;7.03;;
17592;SDS011;8915;51.760;14.300;2023-01-29T11:13:39;11.73;;;7.03;;
17592;SDS011;8915;51.760;14.300;2023-01-29T11:16:09;12.27;;;8.03;;
17592;SDS011;8915;51.760;14.300;2023-01-29T11:18:51;10.63;;;7.30;;
17592;SDS011;8915;51.760;14.300;2023-01-29T11:21:20;15.30;;;7.33;;
17592;SDS011;8915;51.760;14.300;2023-01-29T11:23:49;12.97;;;7.63;;
17592;SDS011;8915;51.760;14.300;2023-01-29T11:26:17;11.87;;;7.00;;
17592;SDS011;8915;51.760;14.300;2023-01-29T11:28:47;17.30;;;7.50;;
17592;SDS011;8915;51.760;14.300;2023-01-29T11:31:16;14.00;;;7.90;;
17592;SDS011;8915;51.760;14.300;2023-01-29T11:33:44;13.90;;;7.67;;
17592;SDS011;8915;51.760;14.300;2023-01-29T11:36:28;13.37;;;7.63;;
17592;SDS011;8915;51.760;14.300;2023-01-29T11:39:09;12.73;;;8.17;;
17592;SDS011;8915;51.760;14.300;2023-01-29T11:41:43;12.33;;;7.43;;
17592;SDS011;8915;51.760;14.300;2023-01-29T11:44:18;12.03;;;7.30;;
17592;SDS011;8915;51.760;14.300;2023-01-29T11:46:46;11.47;;;6.90;;
17592;SDS011;8915;51.760;14.300;2023-01-29T11:49:19;15.73;;;6.73;;
17592;SDS011;8915;51.760;14.300;2023-01-29T11:51:50;13.43;;;7.80;;
17592;SDS011;8915;51.760;14.300;2023-01-29T11:54:21;11.43;;;7.60;;
17592;SDS011;8915;51.760;14.300;2023-01-29T11:56:53;10.30;;;6.90;;
17592;SDS011;8915;51.760;14.300;2023-01-29T11:59:26;11.30;;;6.90;;
17592;SDS011;8915;51.760;14.300;2023-01-29T12:02:02;10.37;;;7.07;;
17592;SDS011;8915;51.760;14.300;2023-01-29T12:04:37;11.03;;;6.90;;
17592;SDS011;8915;51.760;14.300;2023-01-29T12:07:09;12.20;;;6.50;;
17592;SDS011;8915;51.760;14.300;2023-01-29T12:09:40;11.20;;;6.70;;
17592;SDS011;8915;51.760;14.300;2023-01-29T12:12:16;9.73;;;6.17;;
17592;SDS011;8915;51.760;14.300;2023-01-29T12:15:01;10.33;;;6.77;;
17592;SDS011;8915;51.760;14.300;2023-01-29T12:17:29;11.37;;;6.20;;
17592;SDS011;8915;51.760;14.300;2023-01-29T12:19:58;11.43;;;6.63;;
17592;SDS011;8915;51.760;14.300;2023-01-29T12:22:31;12.33;;;6.77;;
17592;SDS011;8915;51.760;14.300;2023-01-29T12:25:15;9.83;;;6.07;;
17592;SDS011;8915;51.760;14.300;2023-01-29T12:27:47;12.47;;;6.37;;
17592;SDS011;8915;51.760;14.300;2023-01-29T12:30:21;12.33;;;6.33;;
17592;SDS011;8915;51.760;14.300;2023-01-29T12:32:58;10.43;;;6.77;;
17592;SDS011;8915;51.760;14.300;2023-01-29T12:35:29;8.37;;;6.03;;
17592;SDS011;8915;51.760;14.300;2023-01-29T12:37:59;10.43;;;6.40;;
17592;SDS011;8915;51.760;14.300;2023-01-29T12:40:30;9.40;;;6.77;;
17592;SDS011;8915;51.760;14.300;2023-01-29T12:43:03;9.10;;;6.30;;
17592;SDS011;8915;51.760;14.300;2023-01-29T12:45:37;10.10;;;6.67;;
17592;SDS011;8915;51.760;14.300;2023-01-29T12:48:05;11.17;;;6.27;;
17592;SDS011;8915;51.760;14.300;2023-01-29T12:50:35;12.47;;;6.67;;
17592;SDS011;8915;51.760;14.300;2023-01-29T12:53:05;10.73;;;6.70;;
17592;SDS011;8915;51.760;14.300;2023-01-29T12:55:40;10.23;;;6.10;;
17592;SDS011;8915;51.760;14.300;2023-01-29T12:58:13;9.60;;;6.37;;
17592;SDS011;8915;51.760;14.300;2023-01-29T13:00:42;10.83;;;6.73;;
17592;SDS011;8915;51.760;14.300;2023-01-29T13:03:13;10.97;;;6.30;;
17592;SDS011;8915;51.760;14.300;2023-01-29T13:05:46;8.73;;;5.70;;
17592;SDS011;8915;51.760;14.300;2023-01-29T13:08:17;13.53;;;6.43;;
17592;SDS011;8915;51.760;14.300;2023-01-29T13:10:47;9.23;;;5.73;;
17592;SDS011;8915;51.760;14.300;2023-01-29T13:13:18;7.70;;;5.60;;
17592;SDS011;8915;51.760;14.300;2023-01-29T13:15:51;13.10;;;6.47;;
17592;SDS011;8915;51.760;14.300;2023-01-29T13:18:30;10.33;;;6.80;;
17592;SDS011;8915;51.760;14.300;2023-01-29T13:21:02;10.07;;;6.27;;
17592;SDS011;8915;51.760;14.300;2023-01-29T13:23:31;11.83;;;7.20;;
17592;SDS011;8915;51.760;14.300;2023-01-29T13:26:01;9.53;;;6.43;;
17592;SDS011;8915;51.760;14.300;2023-01-29T13:28:29;9.67;;;6.90;;
17592;SDS011;8915;51.760;14.300;2023-01-29T13:31:09;11.60;;;6.80;;
17592;SDS011;8915;51.760;14.300;2023-01-29T13:33:39;9.47;;;6.43;;
17592;SDS011;8915;51.760;14.300;2023-01-29T13:36:09;11.53;;;6.10;;
17592;SDS011;8915;51.760;14.300;2023-01-29T13:38:41;11.10;;;6.80;;
17592;SDS011;8915;51.760;14.300;2023-01-29T13:41:10;11.13;;;6.30;;
17592;SDS011;8915;51.760;14.300;2023-01-29T13:43:37;10.10;;;6.57;;
17592;SDS011;8915;51.760;14.300;2023-01-29T13:46:06;10.13;;;6.40;;
17592;SDS011;8915;51.760;14.300;2023-01-29T13:48:34;12.23;;;6.20;;
17592;SDS011;8915;51.760;14.300;2023-01-29T13:51:09;9.47;;;6.20;;
17592;SDS011;8915;51.760;14.300;2023-01-29T13:53:41;10.33;;;6.37;;
17592;SDS011;8915;51.760;14.300;2023-01-29T13:56:29;10.03;;;6.00;;
17592;SDS011;8915;51.760;14.300;2023-01-29T13:59:19;10.50;;;5.77;;
17592;SDS011;8915;51.760;14.300;2023-01-29T14:02:00;11.10;;;6.03;;
17592;SDS011;8915;51.760;14.300;2023-01-29T14:04:44;11.70;;;6.43;;
17592;SDS011;8915;51.760;14.300;2023-01-29T14:10:13;8.27;;;5.57;;
17592;SDS011;8915;51.760;14.300;2023-01-29T14:12:44;9.33;;;6.13;;
17592;SDS011;8915;51.760;14.300;2023-01-29T14:15:26;9.30;;;6.27;;
17592;SDS011;8915;51.760;14.300;2023-01-29T14:17:54;10.33;;;5.77;;
17592;SDS011;8915;51.760;14.300;2023-01-29T14:20:26;9.00;;;6.20;;
17592;SDS011;8915;51.760;14.300;2023-01-29T14:22:58;9.57;;;6.10;;
17592;SDS011;8915;51.760;14.300;2023-01-29T14:25:28;9.73;;;6.37;;
17592;SDS011;8915;51.760;14.300;2023-01-29T14:27:58;9.57;;;5.90;;
17592;SDS011;8915;51.760;14.300;2023-01-29T14:30:29;8.00;;;5.43;;
17592;SDS011;8915;51.760;14.300;2023-01-29T14:32:57;8.10;;;5.40;;
17592;SDS011;8915;51.760;14.300;2023-01-29T14:35:26;9.87;;;5.30;;
17592;SDS011;8915;51.760;14.300;2023-01-29T14:37:58;10.67;;;5.70;;
17592;SDS011;8915;51.760;14.300;2023-01-29T14:40:29;9.40;;;5.90;;
17592;SDS011;8915;51.760;14.300;2023-01-29T14:43:01;9.33;;;6.00;;
17592;SDS011;8915;51.760;14.300;2023-01-29T14:45:31;7.43;;;5.17;;
17592;SDS011;8915;51.760;14.300;2023-01-29T14:51:04;13.80;;;7.73;;
17592;SDS011;8915;51.760;14.300;2023-01-29T14:53:41;13.83;;;8.00;;
17592;SDS011;8915;51.760;14.300;2023-01-29T14:56:13;10.10;;;5.93;;
17592;SDS011;8915;51.760;14.300;2023-01-29T14:58:44;11.13;;;6.90;;
17592;SDS011;8915;51.760;14.300;2023-01-29T15:01:14;9.67;;;5.83;;
17592;SDS011;8915;51.760;14.300;2023-01-29T15:03:46;9.90;;;6.27;;
17592;SDS011;8915;51.760;14.300;2023-01-29T15:06:17;7.90;;;5.30;;
17592;SDS011;8915;51.760;14.300;2023-01-29T15:08:50;8.30;;;5.63;;
17592;SDS011;8915;51.760;14.300;2023-01-29T15:11:29;10.73;;;5.73;;
17592;SDS011;8915;51.760;14.300;2023-01-29T15:14:01;9.13;;;5.47;;
17592;SDS011;8915;51.760;14.300;2023-01-29T15:16:38;11.57;;;6.07;;
17592;SDS011;8915;51.760;14.300;2023-01-29T15:19:12;10.10;;;6.27;;
17592;SDS011;8915;51.760;14.300;2023-01-29T15:22:02;9.77;;;6.27;;
17592;SDS011;8915;51.760;14.300;2023-01-29T15:24:37;8.57;;;5.53;;
17592;SDS011;8915;51.760;14.300;2023-01-29T15:27:05;11.07;;;5.90;;
17592;SDS011;8915;51.760;14.300;2023-01-29T15:29:34;9.57;;;5.60;;
17592;SDS011;8915;51.760;14.300;2023-01-29T15:32:00;9.33;;;5.43;;